Time;durP1;ratioP1;P1;durP2;ratioP2;P2;SDS_P1;SDS_P2;PMS_P1;PMS_P2;Temp;Humidity;BMP_temperature;BMP_pressure;BME280_temperature;BME280_humidity;BME280_pressure;Samples;Min_cycle;Max_cycle;Signal;HPM_P1;HPM_P2
2023/08/16 00:01:10;;;;;;;3.80;1.30;;;17.40;67.50;;;;;;4969860;28;20588;-70
2023/08/16 00:03:38;;;;;;;2.75;1.00;;;17.40;67.60;;;;;;4968449;28;20058;-70
2023/08/16 00:06:09;;;;;;;3.03;1.00;;;17.40;67.60;;;;;;4969783;28;20059;-70
2023/08/16 00:08:36;;;;;;;3.60;1.10;;;17.20;67.60;;;;;;4970106;28;20138;-70
2023/08/16 00:11:04;;;;;;;3.07;1.23;;;17.20;67.60;;;;;;4968408;28;20055;-70
2023/08/16 00:13:31;;;;;;;3.13;1.20;;;17.10;67.70;;;;;;4968420;28;20063;-70
2023/08/16 00:15:58;;;;;;;3.13;1.10;;;17.00;67.90;;;;;;4968194;28;20126;-70
2023/08/16 00:18:25;;;;;;;4.45;1.30;;;17.00;67.90;;;;;;4967217;28;20055;-70
2023/08/16 00:20:54;;;;;;;3.40;1.15;;;16.90;68.00;;;;;;4951654;28;20053;-70
2023/08/16 00:23:21;;;;;;;2.93;1.47;;;16.90;68.20;;;;;;4969674;28;20242;-70
2023/08/16 00:25:48;;;;;;;4.25;1.30;;;16.90;68.20;;;;;;4968094;28;20152;-70
2023/08/16 00:28:15;;;;;;;3.67;1.20;;;16.90;68.20;;;;;;4968241;28;20059;-70
2023/08/16 00:30:42;;;;;;;4.15;1.40;;;16.90;68.20;;;;;;4968201;28;20059;-70
2023/08/16 00:33:09;;;;;;;3.40;1.40;;;16.80;68.20;;;;;;4967917;28;20130;-70
2023/08/16 00:35:36;;;;;;;3.00;1.10;;;16.80;68.30;;;;;;4967879;28;20079;-70
2023/08/16 00:38:05;;;;;;;4.47;1.50;;;16.80;68.30;;;;;;4951696;28;20138;-70
2023/08/16 00:40:32;;;;;;;3.50;1.27;;;16.80;68.30;;;;;;4967761;28;20111;-70
2023/08/16 00:42:59;;;;;;;3.30;1.10;;;16.80;68.40;;;;;;4967509;28;20500;-70
2023/08/16 00:45:26;;;;;;;3.20;1.30;;;16.70;68.50;;;;;;4967857;28;20125;-70
2023/08/16 00:47:54;;;;;;;3.27;0.97;;;16.70;68.50;;;;;;4970965;28;20051;-70
2023/08/16 00:50:24;;;;;;;2.70;0.95;;;16.70;68.50;;;;;;4986832;28;20046;-70
2023/08/16 00:52:52;;;;;;;3.10;1.25;;;16.70;68.40;;;;;;4987322;28;20185;-70
2023/08/16 00:55:20;;;;;;;2.70;1.20;;;16.60;68.30;;;;;;4970951;28;20721;-70
2023/08/16 00:57:49;;;;;;;3.00;1.42;;;16.60;68.40;;;;;;4986977;28;20536;-70
2023/08/16 01:00:16;;;;;;;4.40;1.60;;;16.60;68.40;;;;;;4985460;28;20055;-70
2023/08/16 01:02:43;;;;;;;4.80;1.50;;;16.60;68.30;;;;;;4986242;28;20576;-70
2023/08/16 01:05:11;;;;;;;4.57;1.80;;;16.50;68.20;;;;;;4969998;28;20110;-70
2023/08/16 01:07:38;;;;;;;3.58;1.65;;;16.50;68.30;;;;;;4970053;28;20057;-70
2023/08/16 01:10:08;;;;;;;4.35;1.80;;;16.50;68.40;;;;;;4986192;28;20051;-70
2023/08/16 01:12:46;;;;;;;3.43;1.70;;;16.50;68.60;;;;;;4987048;28;20051;-70
2023/08/16 01:15:18;;;;;;;3.88;1.70;;;16.50;68.60;;;;;;4971073;28;20047;-70
2023/08/16 01:17:47;;;;;;;3.88;1.80;;;16.40;68.60;;;;;;4987523;28;20053;-70
2023/08/16 01:20:16;;;;;;;5.05;1.55;;;16.40;68.70;;;;;;4987068;28;20061;-70
2023/08/16 01:22:49;;;;;;;3.92;1.50;;;16.40;68.80;;;;;;4987187;28;20850;-70
2023/08/16 01:25:26;;;;;;;3.77;1.40;;;16.40;69.10;;;;;;4975685;28;20051;-70
2023/08/16 01:27:55;;;;;;;3.40;1.38;;;16.30;69.10;;;;;;4951237;28;20418;-70
2023/08/16 01:30:23;;;;;;;3.95;1.85;;;16.20;69.00;;;;;;4969038;28;20051;-70
2023/08/16 01:32:51;;;;;;;6.38;2.63;;;16.20;68.90;;;;;;4954309;28;20845;-70
2023/08/16 01:35:18;;;;;;;4.72;2.10;;;16.20;68.70;;;;;;4954879;28;20053;-70
2023/08/16 01:37:46;;;;;;;4.53;2.00;;;16.10;68.80;;;;;;4954827;28;20055;-70
2023/08/16 01:40:13;;;;;;;5.00;2.05;;;16.10;68.80;;;;;;4954502;28;20063;-70
2023/08/16 01:42:46;;;;;;;4.85;2.17;;;16.10;68.70;;;;;;4972143;28;20157;-70
2023/08/16 01:45:18;;;;;;;4.53;2.10;;;16.10;68.80;;;;;;4954277;28;20044;-70
2023/08/16 01:47:46;;;;;;;4.30;1.77;;;16.00;69.00;;;;;;4954448;28;20053;-70
2023/08/16 01:50:13;;;;;;;4.40;1.70;;;16.00;69.10;;;;;;4954602;28;20082;-70
2023/08/16 01:52:40;;;;;;;3.92;1.73;;;16.00;69.00;;;;;;4970433;28;20079;-70
2023/08/16 01:55:09;;;;;;;4.25;2.00;;;16.00;69.10;;;;;;4971605;28;20202;-70
2023/08/16 01:57:36;;;;;;;3.47;1.80;;;16.00;69.20;;;;;;4954107;28;20055;-70
2023/08/16 02:00:04;;;;;;;5.18;1.90;;;16.00;69.30;;;;;;4954159;28;20053;-70
2023/08/16 02:02:43;;;;;;;4.53;1.73;;;16.00;69.40;;;;;;4970214;28;20063;-70
2023/08/16 02:05:10;;;;;;;4.55;1.60;;;16.00;69.50;;;;;;4969933;28;20495;-69
2023/08/16 02:07:38;;;;;;;3.80;1.48;;;15.90;69.50;;;;;;4972065;28;20052;-70
2023/08/16 02:10:06;;;;;;;3.85;1.42;;;15.80;69.50;;;;;;4971524;28;20560;-70
2023/08/16 02:12:34;;;;;;;3.38;1.30;;;15.80;69.50;;;;;;4970254;28;20506;-70
2023/08/16 02:15:02;;;;;;;4.20;1.63;;;15.80;69.70;;;;;;4954065;28;20930;-69
2023/08/16 02:17:29;;;;;;;4.22;1.50;;;15.80;69.60;;;;;;4953997;28;20138;-70
2023/08/16 02:19:58;;;;;;;4.05;1.40;;;15.70;69.40;;;;;;4970582;28;20126;-70
2023/08/16 02:22:26;;;;;;;4.18;1.20;;;15.70;69.20;;;;;;4970554;28;20051;-69
2023/08/16 02:24:54;;;;;;;3.28;1.20;;;15.60;69.10;;;;;;4970334;28;20063;-70
2023/08/16 02:27:22;;;;;;;3.87;1.30;;;15.60;69.30;;;;;;4970327;28;20131;-70
2023/08/16 02:29:51;;;;;;;3.38;1.40;;;15.60;69.50;;;;;;4954016;28;20051;-70
2023/08/16 02:32:18;;;;;;;4.30;1.38;;;15.60;69.70;;;;;;4971749;28;20165;-70
2023/08/16 02:34:45;;;;;;;4.30;1.48;;;15.60;69.80;;;;;;4954104;28;20150;-70
2023/08/16 02:37:13;;;;;;;3.65;1.40;;;15.50;70.00;;;;;;4970155;28;20114;-70
2023/08/16 02:39:41;;;;;;;4.37;1.60;;;15.50;70.10;;;;;;4969996;28;20055;-70
2023/08/16 02:42:08;;;;;;;4.05;1.80;;;15.50;70.00;;;;;;4968896;28;20134;-70
2023/08/16 02:44:35;;;;;;;3.05;1.27;;;15.50;70.10;;;;;;4971314;28;20126;-70
2023/08/16 02:47:02;;;;;;;2.65;1.08;;;15.50;69.90;;;;;;4969906;28;20474;-70
2023/08/16 02:49:29;;;;;;;3.78;1.45;;;15.40;69.90;;;;;;4954120;28;20071;-70
2023/08/16 02:51:56;;;;;;;4.00;1.60;;;15.40;70.00;;;;;;4953766;28;20560;-70
2023/08/16 02:54:25;;;;;;;3.28;1.52;;;15.40;70.10;;;;;;4969965;28;20055;-70
2023/08/16 02:56:51;;;;;;;4.07;1.73;;;15.40;70.00;;;;;;4969577;28;20055;-69
2023/08/16 02:59:18;;;;;;;3.67;1.75;;;15.30;70.00;;;;;;4953674;28;20054;-70
2023/08/16 03:01:46;;;;;;;4.60;1.77;;;15.30;70.00;;;;;;4969427;28;20403;-70
2023/08/16 03:04:13;;;;;;;4.30;1.80;;;15.30;70.20;;;;;;4969780;28;20051;-70
2023/08/16 03:06:40;;;;;;;5.88;1.58;;;15.30;70.40;;;;;;4953880;28;20134;-70
2023/08/16 03:09:07;;;;;;;3.55;1.65;;;15.20;70.50;;;;;;4970163;28;20051;-70
2023/08/16 03:11:36;;;;;;;4.18;1.98;;;15.20;70.60;;;;;;4969589;28;20505;-70
2023/08/16 03:14:03;;;;;;;4.22;1.83;;;15.10;70.90;;;;;;4969926;28;20139;-70
2023/08/16 03:16:31;;;;;;;4.07;1.90;;;15.00;71.00;;;;;;4953442;28;20934;-70
2023/08/16 03:19:00;;;;;;;4.70;1.90;;;15.00;71.10;;;;;;4953894;28;20054;-70
2023/08/16 03:21:27;;;;;;;5.18;1.95;;;15.00;71.20;;;;;;4953128;28;20134;-70
2023/08/16 03:23:54;;;;;;;7.35;1.90;;;15.00;71.20;;;;;;4952961;28;20047;-70
2023/08/16 03:26:21;;;;;;;5.28;1.60;;;15.00;71.20;;;;;;4969469;28;20644;-70
2023/08/16 03:28:49;;;;;;;3.60;1.63;;;15.00;71.30;;;;;;4969522;28;20164;-70
2023/08/16 03:31:17;;;;;;;4.00;1.80;;;15.00;71.40;;;;;;4969129;28;20059;-70
2023/08/16 03:33:44;;;;;;;5.60;1.77;;;15.00;71.40;;;;;;4970559;28;20118;-70
2023/08/16 03:36:12;;;;;;;3.92;1.60;;;15.00;71.50;;;;;;4969214;28;20055;-69
2023/08/16 03:38:41;;;;;;;4.95;1.60;;;14.90;71.60;;;;;;4953168;28;20146;-70
2023/08/16 03:41:08;;;;;;;5.27;2.00;;;14.90;71.70;;;;;;4969123;28;21006;-70
2023/08/16 03:43:36;;;;;;;5.20;2.40;;;14.90;71.70;;;;;;4969763;28;20123;-70
2023/08/16 03:46:07;;;;;;;5.80;2.17;;;14.80;71.80;;;;;;4953298;28;20047;-70
2023/08/16 03:48:34;;;;;;;4.63;2.20;;;14.80;71.90;;;;;;4953292;28;20063;-70
2023/08/16 03:51:01;;;;;;;4.70;2.10;;;14.80;71.90;;;;;;4970020;28;20188;-70
2023/08/16 03:53:28;;;;;;;5.27;1.80;;;14.70;71.90;;;;;;4970066;28;20067;-70
2023/08/16 03:55:56;;;;;;;4.28;1.75;;;14.70;72.00;;;;;;4968785;28;20078;-70
2023/08/16 03:58:23;;;;;;;5.15;2.40;;;14.70;72.20;;;;;;4968321;28;20486;-70
2023/08/16 04:00:52;;;;;;;4.80;1.80;;;14.70;72.20;;;;;;4952340;28;20079;-70
2023/08/16 04:03:21;;;;;;;6.78;2.40;;;14.70;72.30;;;;;;4952616;28;20055;-70
2023/08/16 04:05:48;;;;;;;6.47;2.43;;;14.70;72.30;;;;;;4968897;28;20103;-69
2023/08/16 04:08:15;;;;;;;5.60;2.20;;;14.70;72.20;;;;;;4968569;28;20091;-70
2023/08/16 04:10:43;;;;;;;4.13;1.80;;;14.70;72.20;;;;;;4968478;28;20059;-70
2023/08/16 04:13:10;;;;;;;4.13;1.33;;;14.70;72.10;;;;;;4968673;28;20490;-70
2023/08/16 04:15:37;;;;;;;5.10;1.50;;;14.60;72.10;;;;;;4968894;28;20154;-70
2023/08/16 04:18:05;;;;;;;4.27;1.70;;;14.60;72.20;;;;;;4952733;28;20542;-70
2023/08/16 04:20:33;;;;;;;5.40;1.70;;;14.60;72.30;;;;;;4952386;28;20999;-70
2023/08/16 04:23:00;;;;;;;4.50;1.65;;;14.60;72.40;;;;;;4968352;28;20107;-70
2023/08/16 04:25:27;;;;;;;4.03;1.52;;;14.60;72.60;;;;;;4968743;28;20051;-69
2023/08/16 04:27:56;;;;;;;4.45;1.45;;;14.60;72.50;;;;;;4952664;28;20055;-70
2023/08/16 04:30:23;;;;;;;5.10;2.20;;;14.50;72.50;;;;;;4968684;28;20146;-70
2023/08/16 04:32:50;;;;;;;4.80;2.22;;;14.50;72.60;;;;;;4968556;28;20059;-70
2023/08/16 04:35:18;;;;;;;4.38;2.00;;;14.50;72.60;;;;;;4968801;28;20126;-70
2023/08/16 04:37:47;;;;;;;3.92;1.92;;;14.50;72.70;;;;;;4968192;28;20230;-70
2023/08/16 04:40:14;;;;;;;4.35;2.00;;;14.50;72.70;;;;;;4952210;28;20058;-70
2023/08/16 04:42:42;;;;;;;3.90;1.87;;;14.50;72.80;;;;;;4951717;28;20082;-70
2023/08/16 04:45:09;;;;;;;4.63;1.88;;;14.40;73.00;;;;;;4952236;28;20069;-70
2023/08/16 04:47:37;;;;;;;5.68;2.65;;;14.40;73.00;;;;;;4951938;28;20138;-70
2023/08/16 04:50:06;;;;;;;4.40;2.30;;;14.40;73.20;;;;;;4968222;28;20122;-70
2023/08/16 04:52:33;;;;;;;5.30;2.40;;;14.40;73.30;;;;;;4951427;28;20135;-69
2023/08/16 04:55:07;;;;;;;5.27;1.87;;;14.40;73.20;;;;;;4951560;28;20050;-70
2023/08/16 04:57:35;;;;;;;8.05;2.50;;;14.40;73.30;;;;;;4968221;28;20051;-69
2023/08/16 05:00:06;;;;;;;6.60;2.70;;;14.40;73.30;;;;;;4969245;28;20157;-70
2023/08/16 05:02:37;;;;;;;7.28;2.80;;;14.40;73.40;;;;;;4968924;28;20938;-70
2023/08/16 05:05:06;;;;;;;4.53;2.50;;;14.40;73.40;;;;;;4968276;28;20055;-70
2023/08/16 05:07:33;;;;;;;5.57;2.53;;;14.40;73.50;;;;;;4952553;28;20569;-70
2023/08/16 05:10:01;;;;;;;7.25;2.90;;;14.40;73.60;;;;;;4952222;28;20506;-70
2023/08/16 05:12:30;;;;;;;5.35;2.90;;;14.30;73.60;;;;;;4968341;28;20107;-70
2023/08/16 05:14:57;;;;;;;7.13;3.20;;;14.30;73.80;;;;;;4953078;28;20142;-70
2023/08/16 05:17:24;;;;;;;6.20;3.67;;;14.30;73.90;;;;;;4952437;28;20118;-70
2023/08/16 05:19:51;;;;;;;6.53;3.47;;;14.20;74.10;;;;;;4952594;28;20517;-70
2023/08/16 05:22:19;;;;;;;6.95;3.63;;;14.20;74.30;;;;;;4967711;28;20528;-70
2023/08/16 05:24:47;;;;;;;6.50;3.53;;;14.20;74.50;;;;;;4969685;28;20141;-70
2023/08/16 05:27:14;;;;;;;5.47;3.13;;;14.20;74.70;;;;;;4969687;28;20587;-70
2023/08/16 05:29:42;;;;;;;5.97;3.40;;;14.20;74.80;;;;;;4969008;28;20653;-70
2023/08/16 05:32:09;;;;;;;5.33;3.00;;;14.20;74.90;;;;;;4968665;28;20052;-70
2023/08/16 05:34:37;;;;;;;5.97;3.05;;;14.20;75.00;;;;;;4969852;28;20051;-70
2023/08/16 05:37:09;;;;;;;6.40;3.38;;;14.20;75.00;;;;;;4969816;28;20138;-70
2023/08/16 05:39:36;;;;;;;5.40;3.30;;;14.20;75.10;;;;;;4969876;28;20058;-70
2023/08/16 05:42:03;;;;;;;6.10;3.40;;;14.30;75.10;;;;;;4970062;28;20228;-70
2023/08/16 05:44:30;;;;;;;5.23;3.20;;;14.30;75.10;;;;;;4968588;28;20044;-70
2023/08/16 05:46:59;;;;;;;5.35;2.90;;;14.30;75.20;;;;;;4969557;28;20075;-69
2023/08/16 05:49:26;;;;;;;5.30;3.17;;;14.30;75.40;;;;;;4964702;28;20190;-70
2023/08/16 05:51:53;;;;;;;10.57;3.60;;;14.30;75.50;;;;;;4962194;28;20054;-70
2023/08/16 05:54:20;;;;;;;8.48;2.97;;;14.40;75.70;;;;;;4960075;28;20081;-70
2023/08/16 05:56:47;;;;;;;6.83;3.40;;;14.40;76.10;;;;;;4960168;28;20053;-70
2023/08/16 05:59:14;;;;;;;7.68;3.30;;;14.40;76.20;;;;;;4959509;28;20142;-70
2023/08/16 06:01:41;;;;;;;7.47;3.50;;;14.40;76.20;;;;;;4949122;28;20055;-70
2023/08/16 06:04:10;;;;;;;5.47;3.28;;;14.40;76.20;;;;;;4955769;28;20507;-69
2023/08/16 06:06:37;;;;;;;6.18;3.60;;;14.50;76.10;;;;;;4960454;28;21070;-70
2023/08/16 06:09:05;;;;;;;6.17;3.63;;;14.50;76.10;;;;;;4957532;28;20052;-70
2023/08/16 06:11:32;;;;;;;6.50;4.43;;;14.50;76.30;;;;;;4959369;28;20151;-70
2023/08/16 06:14:00;;;;;;;6.82;4.57;;;14.50;77.50;;;;;;4958962;28;20051;-70
2023/08/16 06:16:27;;;;;;;7.63;4.55;;;14.60;77.60;;;;;;4965518;28;20056;-70
2023/08/16 06:18:55;;;;;;;10.50;5.07;;;14.60;78.20;;;;;;4965458;28;20056;-70
2023/08/16 06:21:24;;;;;;;7.60;4.27;;;14.60;77.80;;;;;;4962164;28;20083;-70
2023/08/16 06:23:53;;;;;;;8.88;4.75;;;14.70;78.10;;;;;;4962256;28;20089;-70
2023/08/16 06:26:20;;;;;;;8.48;4.78;;;14.70;78.90;;;;;;4964387;28;20052;-71
2023/08/16 06:28:47;;;;;;;9.40;4.63;;;14.70;79.10;;;;;;4962428;28;20604;-70
2023/08/16 06:31:15;;;;;;;7.97;5.18;;;14.70;79.30;;;;;;4959529;28;20051;-71
2023/08/16 06:33:43;;;;;;;7.53;4.70;;;14.80;79.40;;;;;;4951278;28;20055;-70
2023/08/16 06:36:10;;;;;;;9.25;4.80;;;14.80;79.30;;;;;;4962012;28;20106;-70
2023/08/16 06:38:38;;;;;;;9.57;5.20;;;14.80;79.10;;;;;;4959382;28;20059;-71
2023/08/16 06:41:05;;;;;;;7.93;4.75;;;14.90;78.90;;;;;;4981089;28;20087;-70
2023/08/16 06:43:32;;;;;;;8.27;5.05;;;14.90;79.30;;;;;;4959325;28;20055;-71
2023/08/16 06:45:59;;;;;;;8.70;5.17;;;14.90;79.90;;;;;;4967399;28;20727;-70
2023/08/16 06:48:26;;;;;;;9.50;4.97;;;14.90;79.50;;;;;;4964701;28;20055;-70
2023/08/16 06:50:54;;;;;;;6.20;3.50;;;15.00;79.40;;;;;;4960411;28;20055;-69
2023/08/16 06:53:22;;;;;;;6.78;4.20;;;15.00;79.70;;;;;;4960080;28;20976;-69
2023/08/16 06:55:50;;;;;;;8.35;5.38;;;15.00;79.70;;;;;;4963403;28;20066;-69
2023/08/16 06:58:17;;;;;;;7.23;4.00;;;15.00;79.80;;;;;;4945212;28;20055;-69
2023/08/16 07:00:45;;;;;;;8.93;5.15;;;15.00;80.00;;;;;;4951802;28;20131;-70
2023/08/16 07:03:13;;;;;;;9.27;5.15;;;15.10;80.30;;;;;;4960986;28;20501;-69
2023/08/16 07:05:45;;;;;;;9.00;4.80;;;15.20;81.20;;;;;;4964660;28;20062;-70
2023/08/16 07:08:13;;;;;;;8.65;4.63;;;15.30;81.60;;;;;;4967027;28;20422;-71
2023/08/16 07:10:43;;;;;;;8.67;5.53;;;15.40;82.20;;;;;;4957739;28;20055;-70
2023/08/16 07:13:11;;;;;;;7.85;4.53;;;15.40;82.50;;;;;;4959724;28;20134;-71
2023/08/16 07:15:38;;;;;;;8.90;4.97;;;15.50;82.50;;;;;;4958359;28;20070;-69
2023/08/16 07:18:05;;;;;;;7.25;4.38;;;15.60;82.70;;;;;;4960479;28;20505;-70
2023/08/16 07:20:33;;;;;;;7.97;4.93;;;15.60;82.90;;;;;;4968125;28;20122;-70
2023/08/16 07:23:01;;;;;;;9.80;5.67;;;15.80;83.40;;;;;;4968794;28;20056;-70
2023/08/16 07:25:28;;;;;;;12.90;6.35;;;15.80;83.50;;;;;;4968162;28;20557;-70
2023/08/16 07:27:55;;;;;;;10.82;4.90;;;15.90;83.30;;;;;;4971259;28;20130;-70
2023/08/16 07:30:24;;;;;;;9.98;5.20;;;16.00;83.50;;;;;;4969732;28;20560;-71
2023/08/16 07:32:51;;;;;;;10.45;5.22;;;16.00;83.80;;;;;;4947509;28;20047;-71
2023/08/16 07:35:18;;;;;;;12.07;6.47;;;16.10;84.00;;;;;;4961884;28;20053;-70
2023/08/16 07:37:46;;;;;;;10.57;5.82;;;16.20;84.00;;;;;;4961484;28;20488;-71
2023/08/16 07:40:13;;;;;;;9.75;4.93;;;16.20;84.20;;;;;;4960977;28;20111;-70
2023/08/16 07:42:41;;;;;;;10.10;4.93;;;16.40;84.10;;;;;;4965621;28;20047;-70
2023/08/16 07:45:09;;;;;;;8.25;4.40;;;16.40;84.30;;;;;;4965038;28;20075;-70
2023/08/16 07:47:38;;;;;;;10.03;4.77;;;16.40;84.20;;;;;;4959468;28;20135;-71
2023/08/16 07:50:07;;;;;;;8.45;4.82;;;16.50;84.40;;;;;;4960310;28;20059;-70
2023/08/16 07:52:33;;;;;;;10.00;4.78;;;16.60;84.50;;;;;;4963686;28;20051;-70
2023/08/16 07:55:00;;;;;;;8.63;5.05;;;16.70;84.50;;;;;;4971238;28;20134;-70
2023/08/16 07:57:27;;;;;;;8.95;4.82;;;16.80;84.70;;;;;;4949898;28;20145;-70
2023/08/16 07:59:55;;;;;;;10.23;5.87;;;16.80;84.70;;;;;;4969696;28;20149;-70
2023/08/16 08:02:23;;;;;;;9.15;5.15;;;16.90;84.70;;;;;;4969474;28;20059;-70
2023/08/16 08:04:52;;;;;;;11.07;5.57;;;17.00;84.40;;;;;;4961293;28;20055;-70
2023/08/16 08:07:20;;;;;;;10.88;5.03;;;17.00;84.60;;;;;;4939971;28;20056;-71
2023/08/16 08:09:47;;;;;;;6.57;3.50;;;17.10;84.80;;;;;;4956048;28;20058;-71
2023/08/16 08:12:14;;;;;;;7.27;3.60;;;17.20;84.80;;;;;;4956694;28;20150;-71
2023/08/16 08:14:42;;;;;;;7.43;3.70;;;17.30;84.90;;;;;;4957220;28;20059;-69
2023/08/16 08:17:09;;;;;;;6.47;3.05;;;17.40;84.90;;;;;;4958351;28;20137;-71
2023/08/16 08:19:36;;;;;;;5.63;3.10;;;17.50;84.60;;;;;;4962902;28;20055;-70
2023/08/16 08:22:05;;;;;;;4.88;2.75;;;17.50;84.30;;;;;;4960028;28;20047;-70
2023/08/16 08:24:34;;;;;;;7.63;2.90;;;17.60;84.20;;;;;;4961570;28;20059;-71
2023/08/16 08:27:04;;;;;;;5.88;3.35;;;17.60;84.20;;;;;;4967865;28;20181;-71
2023/08/16 08:29:32;;;;;;;6.65;2.70;;;17.80;84.20;;;;;;4958365;28;20541;-70
2023/08/16 08:31:59;;;;;;;5.57;2.45;;;17.80;84.00;;;;;;4977262;28;20052;-71
2023/08/16 08:34:27;;;;;;;5.55;2.63;;;17.90;83.90;;;;;;4960007;28;20576;-70
2023/08/16 08:36:54;;;;;;;7.97;2.60;;;18.00;83.80;;;;;;4968437;28;20078;-71
2023/08/16 08:39:23;;;;;;;6.70;2.38;;;18.00;83.50;;;;;;4954401;28;20048;-72
2023/08/16 08:41:50;;;;;;;6.28;2.00;;;18.10;83.40;;;;;;4957609;28;20051;-72
2023/08/16 08:44:18;;;;;;;6.05;2.22;;;18.20;83.00;;;;;;4962619;28;20116;-72
2023/08/16 08:46:46;;;;;;;4.55;2.13;;;18.20;82.60;;;;;;4955060;28;20048;-71
2023/08/16 08:49:15;;;;;;;4.03;1.87;;;18.30;82.40;;;;;;4951167;28;20056;-71
2023/08/16 08:51:43;;;;;;;7.20;2.05;;;18.40;82.10;;;;;;4949022;28;20058;-72
2023/08/16 08:54:11;;;;;;;4.70;1.70;;;18.40;81.50;;;;;;4960633;28;20051;-71
2023/08/16 08:56:40;;;;;;;8.23;5.05;;;18.50;81.40;;;;;;4965851;28;20055;-72
2023/08/16 08:59:07;;;;;;;5.65;2.80;;;18.60;81.20;;;;;;4954358;28;20052;-71
2023/08/16 09:01:36;;;;;;;6.80;2.97;;;18.60;80.90;;;;;;4948994;28;20441;-71
2023/08/16 09:04:05;;;;;;;5.15;1.70;;;18.70;80.70;;;;;;4963430;28;20062;-71
2023/08/16 09:06:35;;;;;;;4.55;1.90;;;18.70;80.50;;;;;;4964373;28;20498;-71
2023/08/16 09:09:02;;;;;;;3.95;1.40;;;18.80;80.20;;;;;;4975400;28;20055;-71
2023/08/16 09:11:29;;;;;;;3.83;1.30;;;18.80;80.10;;;;;;4956590;28;20071;-71
2023/08/16 09:14:02;;;;;;;4.97;1.40;;;18.90;79.80;;;;;;4962650;28;20051;-71
2023/08/16 09:16:30;;;;;;;4.15;1.60;;;19.00;79.30;;;;;;4954340;28;20504;-71
2023/08/16 09:18:58;;;;;;;4.40;2.00;;;19.10;79.00;;;;;;4947907;28;20058;-71
2023/08/16 09:21:28;;;;;;;3.28;1.27;;;19.20;78.50;;;;;;4947275;28;20070;-71
2023/08/16 09:23:59;;;;;;;3.22;1.15;;;19.30;78.40;;;;;;4958926;28;20107;-71
2023/08/16 09:26:28;;;;;;;4.00;2.60;;;19.30;78.10;;;;;;4968533;28;20146;-72
2023/08/16 09:29:00;;;;;;;3.17;1.48;;;19.40;77.90;;;;;;4967424;28;20099;-71
2023/08/16 09:31:29;;;;;;;5.20;1.40;;;19.50;77.20;;;;;;4967121;28;20059;-70
2023/08/16 09:33:58;;;;;;;5.20;2.05;;;19.50;77.40;;;;;;4967514;28;20529;-71
2023/08/16 09:36:29;;;;;;;3.25;1.20;;;19.70;77.00;;;;;;4955607;28;20447;-71
2023/08/16 09:39:00;;;;;;;2.97;1.10;;;19.70;76.80;;;;;;4964717;28;20058;-71
2023/08/16 09:41:27;;;;;;;5.57;1.70;;;19.70;76.40;;;;;;4956837;28;20489;-71
2023/08/16 09:44:04;;;;;;;4.13;1.15;;;19.80;75.30;;;;;;4964722;28;20063;-71
2023/08/16 09:46:31;;;;;;;4.47;1.10;;;19.90;75.40;;;;;;4959859;28;20204;-71
2023/08/16 09:49:04;;;;;;;3.83;1.23;;;20.00;75.50;;;;;;4967494;28;20134;-71
2023/08/16 09:51:33;;;;;;;3.70;1.30;;;20.00;75.10;;;;;;4952961;28;20066;-71
2023/08/16 09:54:01;;;;;;;3.47;1.10;;;20.00;75.20;;;;;;4954814;28;20051;-71
2023/08/16 09:56:32;;;;;;;4.57;1.10;;;20.10;75.00;;;;;;4971477;28;20051;-71
2023/08/16 09:59:00;;;;;;;8.40;1.52;;;20.10;74.60;;;;;;4969612;28;20122;-71
2023/08/16 10:01:33;;;;;;;3.97;1.08;;;20.20;74.00;;;;;;4971676;28;20064;-71
2023/08/16 10:04:02;;;;;;;3.57;0.90;;;20.30;73.10;;;;;;4968469;28;20665;-71
2023/08/16 10:07:18;;;;;;;3.25;1.25;;;20.30;73.30;;;;;;4963635;28;20134;-71
2023/08/16 10:09:45;;;;;;;2.92;0.90;;;20.40;73.10;;;;;;4970242;28;20048;-71
2023/08/16 10:12:14;;;;;;;3.38;1.15;;;20.50;72.90;;;;;;4967821;28;20170;-72
2023/08/16 10:14:41;;;;;;;4.38;1.38;;;20.50;72.50;;;;;;4963295;28;20282;-71
2023/08/16 10:17:11;;;;;;;3.07;1.17;;;20.60;72.50;;;;;;4962735;28;20610;-72
2023/08/16 10:19:41;;;;;;;3.75;1.15;;;20.70;72.30;;;;;;4956661;28;20155;-72
2023/08/16 10:22:19;;;;;;;4.30;1.27;;;20.70;72.20;;;;;;4951703;28;20055;-72
2023/08/16 10:24:48;;;;;;;4.05;1.48;;;20.80;72.20;;;;;;4959757;28;20052;-71
2023/08/16 10:27:15;;;;;;;3.20;1.30;;;20.90;72.30;;;;;;4968176;28;20055;-71
2023/08/16 10:29:46;;;;;;;3.10;0.90;;;21.00;72.10;;;;;;4956410;28;20044;-72
2023/08/16 10:32:16;;;;;;;5.40;1.20;;;21.10;71.70;;;;;;4958227;28;20076;-72
2023/08/16 10:34:46;;;;;;;4.60;1.05;;;21.10;71.40;;;;;;4960416;28;20055;-72
2023/08/16 10:37:14;;;;;;;3.95;1.20;;;21.10;70.70;;;;;;4960045;28;20059;-72
2023/08/16 10:39:49;;;;;;;3.50;1.05;;;21.30;70.90;;;;;;4960912;28;20138;-72
2023/08/16 10:42:16;;;;;;;2.53;0.90;;;21.30;70.90;;;;;;4954980;28;20058;-72
2023/08/16 10:44:51;;;;;;;3.17;1.13;;;21.40;71.00;;;;;;4976295;28;20057;-71
2023/08/16 10:47:28;;;;;;;4.55;1.17;;;21.50;71.10;;;;;;4965962;28;20056;-72
2023/08/16 10:49:56;;;;;;;3.80;1.05;;;21.50;70.40;;;;;;4965120;28;20055;-71
2023/08/16 10:52:28;;;;;;;4.18;1.20;;;21.60;70.30;;;;;;4962824;28;20904;-71
2023/08/16 10:54:56;;;;;;;4.47;1.10;;;21.70;70.20;;;;;;4961102;28;20051;-71
2023/08/16 10:57:25;;;;;;;4.32;1.20;;;21.70;70.30;;;;;;4963468;28;20062;-75
2023/08/16 11:00:03;;;;;;;3.55;1.05;;;21.80;69.70;;;;;;4953201;28;20484;-75
2023/08/16 11:02:32;;;;;;;4.10;1.00;;;21.90;70.00;;;;;;4968343;28;20501;-76
2023/08/16 11:05:00;;;;;;;3.13;1.10;;;21.90;69.90;;;;;;4968973;28;20131;-76
2023/08/16 11:07:28;;;;;;;3.53;1.10;;;22.00;69.30;;;;;;4965907;28;21023;-77
2023/08/16 11:09:59;;;;;;;3.47;1.00;;;22.10;68.60;;;;;;4966542;28;20078;-76
2023/08/16 11:12:30;;;;;;;4.70;1.10;;;22.20;68.60;;;;;;4968237;28;20062;-76
2023/08/16 11:14:57;;;;;;;4.18;1.10;;;22.20;67.80;;;;;;4969368;28;20047;-77
2023/08/16 11:17:26;;;;;;;2.53;0.95;;;22.30;67.90;;;;;;4970212;28;20051;-76
2023/08/16 11:19:54;;;;;;;3.83;0.87;;;22.40;67.70;;;;;;4952531;28;20047;-76
2023/08/16 11:22:22;;;;;;;3.13;0.70;;;22.50;66.90;;;;;;4969448;28;20134;-76
2023/08/16 11:24:50;;;;;;;3.80;0.90;;;22.50;66.40;;;;;;4968410;28;20106;-77
2023/08/16 11:27:21;;;;;;;2.53;0.93;;;22.60;65.80;;;;;;4962677;28;20546;-76
2023/08/16 11:29:51;;;;;;;3.55;0.90;;;22.70;66.20;;;;;;4955044;28;20084;-77
2023/08/16 11:32:32;;;;;;;2.40;0.90;;;22.80;66.70;;;;;;4964193;28;20588;-76
2023/08/16 11:35:02;;;;;;;3.92;0.85;;;22.90;66.30;;;;;;4958004;28;20113;-76
2023/08/16 11:37:29;;;;;;;2.88;0.80;;;22.90;65.90;;;;;;4962924;28;20060;-77
2023/08/16 11:40:00;;;;;;;3.10;0.90;;;23.00;65.40;;;;;;4959827;28;20044;-78
2023/08/16 11:42:28;;;;;;;6.20;1.30;;;23.10;65.10;;;;;;4979038;28;20056;-79
2023/08/16 11:44:56;;;;;;;3.47;1.20;;;23.20;65.00;;;;;;4962361;28;20059;-78
2023/08/16 11:47:23;;;;;;;2.75;0.80;;;23.20;64.70;;;;;;4965812;28;20053;-78
2023/08/16 11:49:50;;;;;;;2.92;1.00;;;23.30;64.70;;;;;;4950867;28;20077;-78
2023/08/16 11:52:22;;;;;;;3.15;0.80;;;23.40;65.30;;;;;;4951506;28;20588;-78
2023/08/16 11:55:01;;;;;;;2.50;1.00;;;23.50;64.50;;;;;;4964988;28;20047;-78
2023/08/16 11:57:31;;;;;;;2.53;0.90;;;23.60;64.40;;;;;;4965888;28;20047;-78
2023/08/16 11:59:58;;;;;;;8.45;1.35;;;23.60;64.00;;;;;;4959914;28;20135;-78
2023/08/16 12:02:26;;;;;;;2.75;1.05;;;23.70;63.20;;;;;;4967498;28;20125;-78
2023/08/16 12:04:53;;;;;;;2.40;0.90;;;23.80;62.50;;;;;;4966629;28;20063;-78
2023/08/16 12:07:23;;;;;;;4.03;1.30;;;23.80;62.40;;;;;;4965400;28;20059;-76
2023/08/16 12:09:51;;;;;;;3.00;1.37;;;23.90;62.50;;;;;;4967190;28;20049;-77
2023/08/16 12:12:18;;;;;;;3.40;1.10;;;23.90;62.60;;;;;;4952965;28;20047;-78
2023/08/16 12:14:45;;;;;;;4.45;1.40;;;24.00;62.50;;;;;;4958452;28;20062;-73
2023/08/16 12:17:12;;;;;;;2.72;1.10;;;24.00;62.20;;;;;;4958886;28;20104;-74
2023/08/16 12:19:40;;;;;;;3.42;1.10;;;24.10;61.60;;;;;;4960179;28;20447;-74
2023/08/16 12:22:07;;;;;;;3.67;1.30;;;24.10;61.70;;;;;;4965526;28;20047;-74
2023/08/16 12:24:35;;;;;;;3.53;1.02;;;24.20;62.20;;;;;;4965488;28;20061;-74
2023/08/16 12:27:02;;;;;;;3.25;1.20;;;24.20;61.60;;;;;;4963588;28;20054;-75
2023/08/16 12:29:29;;;;;;;4.47;1.17;;;24.20;61.50;;;;;;4965036;28;20051;-75
2023/08/16 12:31:56;;;;;;;4.57;1.30;;;24.40;61.50;;;;;;4967037;28;20477;-75
2023/08/16 12:34:24;;;;;;;3.33;1.00;;;24.40;61.60;;;;;;4952936;28;20549;-75
2023/08/16 12:36:51;;;;;;;2.70;1.10;;;24.50;61.10;;;;;;4968985;28;20055;-75
2023/08/16 12:39:18;;;;;;;3.55;1.40;;;24.60;60.70;;;;;;4970601;28;20086;-75
2023/08/16 12:41:48;;;;;;;3.67;1.50;;;24.60;60.10;;;;;;4968359;28;20054;-75
2023/08/16 12:44:15;;;;;;;3.00;1.42;;;24.70;59.00;;;;;;4969976;28;20051;-74
2023/08/16 12:46:43;;;;;;;3.70;1.30;;;24.70;59.10;;;;;;4968541;28;20118;-74
2023/08/16 12:49:11;;;;;;;4.68;1.13;;;24.80;59.00;;;;;;4956463;28;20056;-75
2023/08/16 12:51:38;;;;;;;2.78;1.23;;;24.90;58.70;;;;;;4962260;28;20130;-75